グアム の空港の天気 - METARとTAF

グアム国際空港 ( PGUM / GUM ) - グアム ハガニア
飛行場実況気象(Metar)
観測時間04/26 20:54 ChST (04/26 10:54 UTC)
風向・風速東北東 5m/s
視程10km以上
天気現象
少しの雲 雲底高度 3660m
気温28.3℃
湿度91%
気圧1011.5hPa
METARPGUM 261054Z 07010KT 10SM FEW120 28/27 A2989 RMK AO2 SLP115 T02830267
過去の天気等 Google飛行場航空写真 Wunderground天気予報

過去48時間のMETAR

飛行場予報(TAF)
発表時間: 4/26 15:33 ChST (4/26 05:33 UTC)
予報対象時間: 26日16時 ChST ~ 27日22時 ChST
風向・風速東 8m/s
視程10km以上
天気現象周辺でしゅう雨
少しの雲 雲底高度 550m
全天の4割程度の雲 雲底高度 1,070m
26日19時 ChST から
風向・風速東 5m/s
視程10km以上
天気現象周辺でしゅう雨
少しの雲 雲底高度 460m
全天の4割程度の雲 雲底高度 760m
PGUM 260533Z 2606/2712 09015KT P6SM VCSH FEW018 SCT035
FM260900 09010KT P6SM VCSH FEW015 SCT025